Time;durP1;ratioP1;P1;durP2;ratioP2;P2;SDS_P1;SDS_P2;PMS_P1;PMS_P2;Temp;Humidity;BMP_temperature;BMP_pressure;BME280_temperature;BME280_humidity;BME280_pressure;Samples;Min_cycle;Max_cycle;Signal;HPM_P1;HPM_P2
2022/12/20 00:00:12;;;;;;;34.90;13.83;;;;;;;0.34;100.00;96943.72;5058045;28;20206;-72
2022/12/20 00:02:38;;;;;;;35.97;14.63;;;;;;;0.25;100.00;96947.72;5058262;28;20215;-72
2022/12/20 00:05:05;;;;;;;33.77;14.97;;;;;;;0.33;100.00;96939.44;5058143;28;20236;-72
2022/12/20 00:07:33;;;;;;;35.00;13.67;;;;;;;0.50;100.00;96940.03;5058362;28;20235;-72
2022/12/20 00:10:00;;;;;;;34.93;14.53;;;;;;;0.34;100.00;96935.94;5058722;28;20343;-72
2022/12/20 00:12:26;;;;;;;35.03;11.97;;;;;;;0.40;100.00;96953.69;5057673;28;20212;-72
2022/12/20 00:14:53;;;;;;;35.67;13.33;;;;;;;0.29;100.00;96944.00;5057551;28;20204;-72
2022/12/20 00:17:21;;;;;;;33.43;15.57;;;;;;;0.25;100.00;96958.06;5058839;28;20213;-72
2022/12/20 00:19:47;;;;;;;31.57;12.57;;;;;;;0.32;100.00;96943.81;5058465;28;20209;-72
2022/12/20 00:22:14;;;;;;;32.73;13.60;;;;;;;0.32;100.00;96946.41;5058588;28;20224;-72
2022/12/20 00:24:42;;;;;;;35.67;13.27;;;;;;;0.28;100.00;96952.72;5057858;28;20758;-72
2022/12/20 00:27:08;;;;;;;33.33;13.07;;;;;;;0.37;100.00;96949.53;5058096;28;20212;-72
2022/12/20 00:29:35;;;;;;;33.00;13.80;;;;;;;0.40;100.00;96958.88;5059829;28;20212;-71
2022/12/20 00:32:01;;;;;;;29.37;12.30;;;;;;;0.37;100.00;96949.53;5060651;28;20204;-70
2022/12/20 00:34:28;;;;;;;35.67;13.13;;;;;;;0.39;100.00;96954.63;5059205;28;20197;-71
2022/12/20 00:36:54;;;;;;;28.63;13.57;;;;;;;0.30;100.00;96942.25;5059334;28;20216;-71
2022/12/20 00:39:21;;;;;;;32.13;13.60;;;;;;;0.30;100.00;96935.28;5060062;28;20228;-71
2022/12/20 00:41:48;;;;;;;37.10;13.23;;;;;;;0.33;100.00;96932.53;5059621;28;20211;-71
2022/12/20 00:44:15;;;;;;;29.57;13.13;;;;;;;0.19;100.00;96930.00;5058100;28;20205;-71
2022/12/20 00:46:41;;;;;;;38.53;14.30;;;;;;;0.22;100.00;96928.97;5059309;28;20213;-70
2022/12/20 00:49:08;;;;;;;26.13;11.87;;;;;;;0.21;100.00;96938.47;5059431;28;20224;-71
2022/12/20 00:51:34;;;;;;;34.27;13.27;;;;;;;0.30;100.00;96937.88;5058935;28;20219;-71
2022/12/20 00:54:01;;;;;;;36.53;13.60;;;;;;;0.30;100.00;96944.84;5058481;28;20211;-70
2022/12/20 00:56:28;;;;;;;36.53;13.37;;;;;;;0.16;100.00;96945.72;5058896;28;20197;-70
2022/12/20 00:58:58;;;;;;;32.33;13.43;;;;;;;0.26;100.00;96941.59;5058615;28;20231;-71
2022/12/20 01:01:27;;;;;;;33.17;14.03;;;;;;;0.22;100.00;96947.91;5059157;28;20204;-71
2022/12/20 01:03:54;;;;;;;26.33;12.50;;;;;;;0.22;100.00;96945.31;5058057;28;20200;-70
2022/12/20 01:06:22;;;;;;;33.00;14.30;;;;;;;0.28;100.00;96947.53;5058447;28;20516;-70
2022/12/20 01:08:48;;;;;;;30.90;13.20;;;;;;;0.26;100.00;96933.84;5059247;28;20232;-70
2022/12/20 01:11:17;;;;;;;34.23;13.93;;;;;;;0.28;100.00;96944.09;5059581;28;20201;-70
2022/12/20 01:13:46;;;;;;;36.30;14.57;;;;;;;0.23;100.00;96941.81;5057972;28;20752;-70
2022/12/20 01:16:17;;;;;;;25.23;11.73;;;;;;;0.25;100.00;96944.31;5059729;28;20200;-71
2022/12/20 01:18:44;;;;;;;28.00;12.83;;;;;;;0.16;100.00;96945.72;5059301;28;20291;-70
2022/12/20 01:21:12;;;;;;;30.33;13.80;;;;;;;0.18;100.00;96953.41;5058707;28;20219;-71
2022/12/20 01:23:39;;;;;;;33.33;13.97;;;;;;;0.05;100.00;96953.34;5058090;28;20208;-71
2022/12/20 01:26:09;;;;;;;38.87;15.60;;;;;;;0.09;100.00;96952.22;5058574;28;20240;-70
2022/12/20 01:28:37;;;;;;;39.30;15.67;;;;;;;0.08;100.00;96947.97;5058104;28;20270;-71
2022/12/20 01:31:06;;;;;;;39.07;15.30;;;;;;;0.19;100.00;96940.34;5059143;28;20205;-70
2022/12/20 01:33:35;;;;;;;43.67;15.23;;;;;;;0.14;100.00;96932.03;5058899;28;20208;-71
2022/12/20 01:36:03;;;;;;;43.07;15.43;;;;;;;0.12;100.00;96948.59;5058044;28;20211;-71
2022/12/20 01:38:30;;;;;;;35.17;16.17;;;;;;;0.19;100.00;96945.53;5058154;28;20251;-71
2022/12/20 01:40:57;;;;;;;40.73;17.77;;;;;;;0.18;100.00;96949.03;5058877;28;20201;-71
2022/12/20 01:43:25;;;;;;;46.83;17.43;;;;;;;0.26;100.00;96951.97;5058027;28;20218;-70
2022/12/20 01:45:52;;;;;;;39.47;14.37;;;;;;;0.13;100.00;96951.09;5057734;28;20224;-71
2022/12/20 01:48:23;;;;;;;39.60;15.47;;;;;;;0.21;100.00;96948.03;5057918;28;20228;-71
2022/12/20 01:50:52;;;;;;;42.77;15.90;;;;;;;0.19;100.00;96936.91;5058140;28;20661;-71
2022/12/20 01:53:22;;;;;;;35.33;14.63;;;;;;;0.16;100.00;96930.16;5057972;28;20204;-71
2022/12/20 01:55:48;;;;;;;34.40;14.10;;;;;;;0.09;100.00;96925.50;5058117;28;20208;-71
2022/12/20 01:58:19;;;;;;;42.87;17.00;;;;;;;0.08;100.00;96921.22;5057503;28;20247;-71
2022/12/20 02:00:46;;;;;;;52.03;18.07;;;;;;;0.02;100.00;96919.03;5057996;28;20201;-70
2022/12/20 02:03:15;;;;;;;54.37;17.97;;;;;;;0.07;100.00;96907.44;5057975;28;20205;-71
2022/12/20 02:05:44;;;;;;;39.73;16.93;;;;;;;0.07;100.00;96925.56;5057032;28;20231;-71
2022/12/20 02:08:14;;;;;;;40.70;17.13;;;;;;;0.08;100.00;96918.66;5057419;28;20732;-69
2022/12/20 02:11:00;;;;;;;48.10;16.83;;;;;;;0.13;100.00;96917.41;5057864;28;20584;-70
2022/12/20 02:13:37;;;;;;;45.37;16.30;;;;;;;0.11;100.00;96929.63;5057549;28;20284;-71
2022/12/20 02:16:04;;;;;;;52.23;17.97;;;;;;;0.04;100.00;96924.97;5057142;28;20212;-71
2022/12/20 02:18:37;;;;;;;47.10;16.27;;;;;;;0.14;100.00;96916.50;5058003;28;20228;-71
2022/12/20 02:21:24;;;;;;;42.50;17.30;;;;;;;0.11;100.00;96911.47;5057730;28;20207;-71
2022/12/20 02:24:27;;;;;;;45.77;16.00;;;;;;;-0.20;100.00;96910.13;5056729;28;20208;-71
2022/12/20 02:27:25;;;;;;;41.90;16.23;;;;;;;-0.04;100.00;96916.81;5032730;28;20243;-70
2022/12/20 02:30:05;;;;;;;46.60;17.77;;;;;;;-0.25;100.00;96922.53;5056881;28;20204;-70
2022/12/20 02:32:38;;;;;;;40.73;16.40;;;;;;;-0.24;100.00;96916.41;5057036;28;20207;-71
2022/12/20 02:35:07;;;;;;;40.37;16.37;;;;;;;-0.22;100.00;96911.97;5056818;28;20201;-71
2022/12/20 02:37:34;;;;;;;45.97;15.77;;;;;;;-0.24;100.00;96908.63;5057132;28;20625;-71
2022/12/20 02:40:02;;;;;;;34.30;14.70;;;;;;;-0.24;100.00;96906.03;5056976;28;20968;-71
2022/12/20 02:42:31;;;;;;;33.57;14.23;;;;;;;-0.22;100.00;96910.19;5057177;28;20204;-71
2022/12/20 02:45:15;;;;;;;31.83;12.40;;;;;;;-0.22;100.00;96911.97;5056095;28;20211;-70
2022/12/20 02:47:49;;;;;;;37.93;14.30;;;;;;;-0.12;100.00;96900.13;5056534;28;20251;-71
2022/12/20 02:50:21;;;;;;;29.53;11.33;;;;;;;-0.19;100.00;96907.44;5057672;28;20215;-69
2022/12/20 02:52:48;;;;;;;33.20;13.87;;;;;;;-0.28;100.00;96902.00;5056835;28;20197;-71
2022/12/20 02:55:15;;;;;;;33.33;13.53;;;;;;;-0.22;100.00;96899.03;5055883;28;20212;-69
2022/12/20 02:57:48;;;;;;;31.70;13.27;;;;;;;-0.10;100.00;96898.25;5057003;28;20227;-70
2022/12/20 03:00:18;;;;;;;29.90;14.20;;;;;;;-0.10;100.00;96885.28;5056447;28;20214;-69
2022/12/20 03:05:35;;;;;;;25.60;12.37;;;;;;;-0.01;100.00;96886.38;5055618;28;20228;-71
2022/12/20 03:08:02;;;;;;;34.97;14.60;;;;;;;-0.13;100.00;96875.97;5056918;28;20228;-70
2022/12/20 03:10:28;;;;;;;28.80;13.10;;;;;;;-0.34;100.00;96868.75;5055703;28;20574;-70
2022/12/20 03:12:55;;;;;;;33.03;13.30;;;;;;;-0.27;100.00;96862.22;5056581;28;20208;-69
2022/12/20 03:15:21;;;;;;;31.03;12.50;;;;;;;-0.23;100.00;96869.72;5056273;28;20207;-71
2022/12/20 03:17:49;;;;;;;29.90;13.50;;;;;;;-0.18;100.00;96859.88;5056566;28;20224;-70
2022/12/20 03:20:16;;;;;;;35.73;13.70;;;;;;;-0.38;100.00;96849.97;5056287;28;20208;-70
2022/12/20 03:22:42;;;;;;;28.07;12.20;;;;;;;-0.39;100.00;96850.06;5056534;28;20622;-70
2022/12/20 03:25:09;;;;;;;35.70;13.00;;;;;;;-0.42;100.00;96850.25;5055418;28;20200;-69
2022/12/20 03:27:36;;;;;;;32.70;12.97;;;;;;;-0.46;100.00;96851.38;5056150;28;21206;-70
2022/12/20 03:30:03;;;;;;;29.50;12.17;;;;;;;-0.45;100.00;96853.03;5056832;28;20204;-71
2022/12/20 03:32:30;;;;;;;29.07;12.80;;;;;;;-0.52;100.00;96851.78;5054693;28;20223;-70
2022/12/20 03:34:57;;;;;;;29.63;12.13;;;;;;;-0.50;100.00;96848.16;5055913;28;20205;-69
2022/12/20 03:37:24;;;;;;;36.97;12.73;;;;;;;-0.60;100.00;96859.16;5056552;28;20220;-70
2022/12/20 03:39:51;;;;;;;27.70;12.17;;;;;;;-0.62;100.00;96859.25;5056736;28;20204;-70
2022/12/20 03:42:17;;;;;;;26.60;10.60;;;;;;;-0.64;100.00;96857.69;5056304;28;20208;-70
2022/12/20 03:44:44;;;;;;;30.70;12.97;;;;;;;-0.60;100.00;96857.41;5056240;28;20215;-70
2022/12/20 03:47:10;;;;;;;34.17;12.00;;;;;;;-0.63;100.00;96856.78;5056116;28;20224;-70
2022/12/20 03:49:37;;;;;;;30.63;12.43;;;;;;;-0.73;100.00;96855.66;5056691;28;20208;-70
2022/12/20 03:52:05;;;;;;;30.73;12.00;;;;;;;-0.68;100.00;96850.22;5057266;28;20209;-71
2022/12/20 03:54:31;;;;;;;33.10;12.67;;;;;;;-0.95;100.00;96859.69;5055433;28;20230;-70
2022/12/20 03:56:58;;;;;;;31.37;12.20;;;;;;;-0.89;100.00;96861.88;5055820;28;20201;-70
2022/12/20 03:59:24;;;;;;;29.80;12.20;;;;;;;-1.03;100.00;96861.88;5056571;28;20220;-72
2022/12/20 04:01:51;;;;;;;23.37;10.27;;;;;;;-1.00;100.00;96852.19;5057050;28;20205;-71
2022/12/20 04:04:17;;;;;;;21.67;9.70;;;;;;;-1.11;100.00;96859.78;5057751;28;20258;-71
2022/12/20 04:06:44;;;;;;;25.30;10.17;;;;;;;-1.00;100.00;96852.19;5060335;28;20232;-72
2022/12/20 04:09:12;;;;;;;23.20;10.70;;;;;;;-0.91;100.00;96843.88;5060371;28;20228;-72
2022/12/20 04:11:39;;;;;;;25.33;9.97;;;;;;;-1.06;100.00;96843.97;5060191;28;20203;-72
2022/12/20 04:14:06;;;;;;;26.77;11.57;;;;;;;-1.09;100.00;96837.22;5059483;28;20208;-72
2022/12/20 04:16:33;;;;;;;20.87;9.67;;;;;;;-1.16;100.00;96833.38;5060236;28;20217;-71
2022/12/20 04:18:59;;;;;;;22.13;9.77;;;;;;;-1.18;100.00;96840.38;5060075;28;20224;-72
2022/12/20 04:21:28;;;;;;;23.73;9.60;;;;;;;-1.03;100.00;96838.59;5059838;28;20867;-71
2022/12/20 04:23:55;;;;;;;21.50;9.83;;;;;;;-1.03;100.00;96838.59;5059197;28;20216;-71
2022/12/20 04:26:22;;;;;;;28.93;11.00;;;;;;;-1.00;100.00;96817.75;5059965;28;20224;-72
2022/12/20 04:28:49;;;;;;;23.37;10.23;;;;;;;-1.37;100.00;96817.47;5059761;28;20235;-72
2022/12/20 04:31:16;;;;;;;26.90;9.27;;;;;;;-1.18;100.00;96811.94;5060228;28;20200;-72
2022/12/20 04:33:42;;;;;;;16.30;7.77;;;;;;;-1.19;100.00;96830.13;5059102;28;20215;-72
2022/12/20 04:36:09;;;;;;;29.07;12.70;;;;;;;-1.17;100.00;96828.28;5059458;28;20222;-71
2022/12/20 04:38:36;;;;;;;24.50;9.50;;;;;;;-1.23;100.00;96810.56;5059585;28;20227;-72
2022/12/20 04:41:02;;;;;;;25.73;9.60;;;;;;;-1.29;100.00;96803.16;5059935;28;20215;-72
2022/12/20 04:43:30;;;;;;;27.13;9.67;;;;;;;-1.30;100.00;96795.50;5058687;28;20211;-72
2022/12/20 04:45:57;;;;;;;25.77;9.67;;;;;;;-1.34;100.00;96796.59;5059234;28;20228;-72
2022/12/20 04:48:26;;;;;;;18.63;9.63;;;;;;;-1.20;100.00;96800.00;5059185;28;20729;-72
2022/12/20 04:50:54;;;;;;;23.60;8.27;;;;;;;-1.26;100.00;96805.56;5059366;28;20215;-72
2022/12/20 04:56:05;;;;;;;20.77;9.37;;;;;;;-1.41;100.00;96810.81;5059717;28;20215;-72
2022/12/20 04:58:33;;;;;;;23.80;8.97;;;;;;;-1.37;100.00;96813.13;5059174;28;20224;-72
2022/12/20 05:00:59;;;;;;;17.53;8.50;;;;;;;-1.36;100.00;96813.94;5059750;28;20200;-72
2022/12/20 05:03:26;;;;;;;19.37;8.60;;;;;;;-1.34;100.00;96801.78;5059781;28;20212;-72
2022/12/20 05:05:53;;;;;;;20.17;9.83;;;;;;;-1.27;100.00;96813.41;5058529;28;20314;-72
2022/12/20 05:08:20;;;;;;;19.60;7.93;;;;;;;-1.23;100.00;96801.03;5058795;28;20232;-72
2022/12/20 05:10:48;;;;;;;25.37;9.27;;;;;;;-1.24;100.00;96813.25;5060159;28;20763;-72
2022/12/20 05:13:14;;;;;;;30.87;12.03;;;;;;;-1.33;100.00;96806.03;5058635;28;20204;-72
2022/12/20 05:15:42;;;;;;;20.63;9.70;;;;;;;-1.30;100.00;96798.91;5057547;28;20211;-72
2022/12/20 05:18:09;;;;;;;18.20;8.17;;;;;;;-1.26;100.00;96800.41;5058891;28;20232;-72
2022/12/20 05:20:36;;;;;;;16.73;7.27;;;;;;;-1.24;100.00;96793.38;5059551;28;20210;-72
2022/12/20 05:28:33;;;;;;;21.17;8.67;;;;;;;-1.08;100.00;96789.75;5058873;28;20806;-72
2022/12/20 05:31:02;;;;;;;25.63;8.77;;;;;;;-1.01;100.00;96796.22;5057977;28;20853;-73
2022/12/20 05:33:29;;;;;;;24.17;9.53;;;;;;;-1.01;100.00;96790.22;5058177;28;20664;-73
2022/12/20 05:35:55;;;;;;;18.67;8.83;;;;;;;-1.04;100.00;96790.41;5058515;28;20291;-73
2022/12/20 05:38:22;;;;;;;18.30;8.33;;;;;;;-0.97;100.00;96782.19;5058591;28;20234;-73
2022/12/20 05:40:50;;;;;;;21.50;9.07;;;;;;;-0.91;100.00;96780.97;5058551;28;20205;-72
2022/12/20 05:43:17;;;;;;;22.10;9.27;;;;;;;-0.83;100.00;96789.06;5058937;28;21130;-73
2022/12/20 05:45:47;;;;;;;28.53;8.57;;;;;;;-0.79;100.00;96781.03;5057491;28;20209;-72
2022/12/20 05:48:15;;;;;;;25.87;9.23;;;;;;;-0.78;100.00;96777.50;5058068;28;20217;-73
2022/12/20 05:50:43;;;;;;;20.30;9.90;;;;;;;-1.01;100.00;96775.53;5058965;28;20208;-73
2022/12/20 05:53:10;;;;;;;38.97;10.17;;;;;;;-1.06;100.00;96776.72;5058814;28;20208;-73
2022/12/20 05:55:39;;;;;;;20.23;8.80;;;;;;;-0.96;100.00;96773.47;5057718;28;20204;-72
2022/12/20 05:58:06;;;;;;;13.87;7.23;;;;;;;-0.85;100.00;96773.66;5058250;28;20220;-73
2022/12/20 06:00:32;;;;;;;17.77;8.83;;;;;;;-0.82;100.00;96767.47;5058124;28;20211;-72
2022/12/20 06:02:59;;;;;;;17.83;7.80;;;;;;;-0.71;100.00;96767.59;5058198;28;20231;-72
2022/12/20 06:05:27;;;;;;;19.67;7.87;;;;;;;-0.62;100.00;96765.28;5058246;28;20543;-72
2022/12/20 06:07:53;;;;;;;24.60;7.73;;;;;;;-0.71;100.00;96773.63;5059691;28;20235;-73
2022/12/20 06:10:20;;;;;;;24.03;8.93;;;;;;;-0.72;100.00;96777.13;5058279;28;20220;-73
2022/12/20 06:12:46;;;;;;;29.77;9.80;;;;;;;-0.70;100.00;96769.28;5057971;28;20580;-73
2022/12/20 06:15:14;;;;;;;21.33;8.83;;;;;;;-0.71;100.00;96758.09;5057193;28;20204;-73
2022/12/20 06:17:41;;;;;;;30.00;11.40;;;;;;;-0.69;100.00;96755.41;5058178;28;20216;-73
2022/12/20 06:20:08;;;;;;;27.87;11.00;;;;;;;-0.65;100.00;96757.69;5057946;28;20269;-72
2022/12/20 06:22:37;;;;;;;18.27;8.80;;;;;;;-0.62;100.00;96750.56;5057700;28;20215;-73
2022/12/20 06:25:04;;;;;;;19.50;8.97;;;;;;;-0.67;100.00;96744.03;5057239;28;20204;-73
2022/12/20 06:27:31;;;;;;;20.33;9.60;;;;;;;-0.61;100.00;96743.66;5056264;28;20244;-73
2022/12/20 06:29:57;;;;;;;19.90;10.07;;;;;;;-0.59;100.00;96746.97;5057850;28;20207;-73
2022/12/20 06:32:24;;;;;;;18.83;9.67;;;;;;;-0.54;100.00;96745.72;5057332;28;20416;-72
2022/12/20 06:34:50;;;;;;;30.70;10.47;;;;;;;-0.48;100.00;96745.34;5057091;28;20207;-73
2022/12/20 06:37:17;;;;;;;28.90;11.33;;;;;;;-0.35;100.00;96743.63;5057086;28;20207;-72
2022/12/20 06:39:45;;;;;;;24.87;10.00;;;;;;;-0.27;100.00;96740.53;5057767;28;20201;-72
2022/12/20 06:42:11;;;;;;;20.77;10.03;;;;;;;-0.35;100.00;96747.97;5056896;28;20691;-72
2022/12/20 06:44:38;;;;;;;26.47;11.30;;;;;;;-0.35;100.00;96750.56;5057189;28;20264;-72
2022/12/20 06:47:04;;;;;;;29.27;12.33;;;;;;;-0.32;100.00;96742.59;5056942;28;20220;-73
2022/12/20 06:49:31;;;;;;;38.00;12.50;;;;;;;-0.25;100.00;96751.63;5057796;28;20207;-72
2022/12/20 06:51:57;;;;;;;29.93;12.27;;;;;;;-0.30;100.00;96757.09;5059555;28;20587;-71
2022/12/20 06:54:24;;;;;;;34.97;13.70;;;;;;;-0.15;100.00;96747.50;5058594;28;20204;-72
2022/12/20 06:56:52;;;;;;;37.93;13.60;;;;;;;0.00;100.00;96755.13;5059295;28;20197;-71
2022/12/20 06:59:18;;;;;;;32.53;12.90;;;;;;;-0.06;100.00;96742.56;5059688;28;20221;-71
2022/12/20 07:01:45;;;;;;;42.20;13.83;;;;;;;-0.10;100.00;96750.63;5058875;28;20210;-72
2022/12/20 07:04:11;;;;;;;29.70;12.77;;;;;;;-0.14;100.00;96743.97;5058150;28;20204;-72
2022/12/20 07:06:38;;;;;;;32.07;11.90;;;;;;;-0.11;100.00;96744.63;5058899;28;20224;-72
2022/12/20 07:09:05;;;;;;;51.53;15.87;;;;;;;-0.19;100.00;96751.22;5058260;28;20224;-71
2022/12/20 07:11:31;;;;;;;33.73;14.57;;;;;;;-0.10;100.00;96753.22;5058649;28;20204;-71
2022/12/20 07:13:59;;;;;;;36.13;12.90;;;;;;;-0.05;100.00;96758.91;5057973;28;21119;-71
2022/12/20 07:16:26;;;;;;;49.93;17.13;;;;;;;-0.05;100.00;96759.75;5059146;28;20213;-72
2022/12/20 07:18:54;;;;;;;37.40;15.53;;;;;;;0.00;100.00;96753.34;5058631;28;20224;-72
2022/12/20 07:21:21;;;;;;;41.07;15.97;;;;;;;0.08;100.00;96755.44;5055727;28;20207;-72
2022/12/20 07:23:47;;;;;;;36.07;14.83;;;;;;;0.09;100.00;96759.69;5057593;28;20216;-72
2022/12/20 07:26:14;;;;;;;36.97;14.07;;;;;;;0.11;100.00;96750.84;5056893;28;20208;-71
2022/12/20 07:28:42;;;;;;;51.83;14.30;;;;;;;0.13;100.00;96753.38;5057708;28;20259;-71
2022/12/20 07:31:10;;;;;;;35.83;13.57;;;;;;;0.14;100.00;96753.25;5057967;28;20200;-71
2022/12/20 07:33:37;;;;;;;27.30;11.53;;;;;;;0.17;100.00;96741.88;5056199;28;20204;-72
2022/12/20 07:36:06;;;;;;;34.13;13.20;;;;;;;0.22;100.00;96745.78;5057941;28;20212;-72
2022/12/20 07:38:34;;;;;;;32.47;14.20;;;;;;;0.11;100.00;96735.31;5057337;28;20216;-72
2022/12/20 07:41:00;;;;;;;45.03;14.70;;;;;;;0.16;100.00;96741.00;5057317;28;20207;-71
2022/12/20 07:43:27;;;;;;;38.83;14.50;;;;;;;0.09;100.00;96737.19;5057329;28;20208;-71
2022/12/20 07:45:55;;;;;;;40.30;13.60;;;;;;;0.27;100.00;96730.78;5059480;28;20217;-71
2022/12/20 07:48:23;;;;;;;33.63;13.17;;;;;;;0.38;100.00;96738.66;5057432;28;20278;-71
2022/12/20 07:50:51;;;;;;;36.03;13.87;;;;;;;0.44;100.00;96737.41;5057478;28;20212;-72
2022/12/20 07:53:19;;;;;;;33.00;13.00;;;;;;;0.47;100.00;96732.84;5057780;28;20201;-72
2022/12/20 07:55:46;;;;;;;34.07;13.33;;;;;;;0.44;100.00;96742.59;5055799;28;20212;-72
2022/12/20 07:58:14;;;;;;;51.30;18.67;;;;;;;0.60;100.00;96736.25;5056190;28;20232;-72
2022/12/20 08:00:41;;;;;;;40.27;16.03;;;;;;;0.66;100.00;96741.00;5056992;28;20227;-72
2022/12/20 08:03:12;;;;;;;33.17;13.53;;;;;;;0.89;100.00;96742.84;5056086;28;20227;-71
2022/12/20 08:05:46;;;;;;;28.13;12.70;;;;;;;0.88;100.00;96744.63;5055826;28;20202;-72
2022/12/20 08:08:13;;;;;;;33.87;13.10;;;;;;;0.84;100.00;96748.38;5056624;28;20645;-73
2022/12/20 08:10:40;;;;;;;36.30;13.40;;;;;;;0.89;100.00;96753.22;5057096;28;20201;-72
2022/12/20 08:13:07;;;;;;;43.87;13.83;;;;;;;0.99;100.00;96743.88;5056708;28;20224;-72
2022/12/20 08:15:35;;;;;;;31.23;12.97;;;;;;;1.10;100.00;96736.16;5056235;28;20216;-73
2022/12/20 08:18:02;;;;;;;36.63;13.77;;;;;;;1.07;100.00;96738.97;5056768;28;20221;-72
2022/12/20 08:20:28;;;;;;;32.53;13.83;;;;;;;1.09;100.00;96739.69;5056215;28;20200;-72
2022/12/20 08:22:56;;;;;;;35.20;13.17;;;;;;;1.05;100.00;96740.84;5056600;28;20301;-73
2022/12/20 08:25:23;;;;;;;39.97;13.70;;;;;;;1.18;100.00;96739.88;5058041;28;20207;-72
2022/12/20 08:27:50;;;;;;;49.03;12.53;;;;;;;1.23;100.00;96735.19;5056586;28;20239;-73
2022/12/20 08:30:17;;;;;;;34.03;14.63;;;;;;;1.21;100.00;96727.50;5056352;28;20301;-72
2022/12/20 08:32:43;;;;;;;43.40;14.63;;;;;;;1.19;100.00;96733.75;5056619;28;20205;-72
2022/12/20 08:35:11;;;;;;;44.07;15.23;;;;;;;1.11;100.00;96733.47;5055115;28;20208;-72
2022/12/20 08:37:38;;;;;;;52.97;18.53;;;;;;;1.07;100.00;96733.78;5055931;28;20242;-72
2022/12/20 08:40:07;;;;;;;55.73;21.10;;;;;;;1.16;100.00;96727.94;5056080;28;20223;-72
2022/12/20 08:42:34;;;;;;;72.20;24.60;;;;;;;1.11;100.00;96724.84;5055645;28;20209;-72
2022/12/20 08:45:00;;;;;;;118.47;39.43;;;;;;;1.21;100.00;96711.94;5054465;28;20210;-72
2022/12/20 08:47:29;;;;;;;101.60;34.77;;;;;;;1.51;100.00;96714.91;5055678;28;20753;-72
2022/12/20 08:49:55;;;;;;;66.93;23.23;;;;;;;1.56;100.00;96718.00;5056756;28;20212;-73
2022/12/20 08:52:22;;;;;;;51.73;19.63;;;;;;;1.55;100.00;96721.53;5058652;28;20214;-72
2022/12/20 08:54:48;;;;;;;47.83;18.53;;;;;;;1.66;100.00;96734.59;5059059;28;20206;-73
2022/12/20 08:57:16;;;;;;;50.27;17.83;;;;;;;1.66;100.00;96737.19;5058901;28;20213;-72
2022/12/20 08:59:42;;;;;;;36.30;14.67;;;;;;;1.71;100.00;96729.88;5058784;28;20369;-72
2022/12/20 09:02:09;;;;;;;45.23;14.93;;;;;;;1.58;100.00;96736.91;5058578;28;20658;-72
2022/12/20 09:04:36;;;;;;;31.03;12.50;;;;;;;1.68;100.00;96747.44;5058503;28;20203;-73
2022/12/20 09:07:02;;;;;;;30.50;11.67;;;;;;;1.68;100.00;96740.50;5058960;28;20223;-72
2022/12/20 09:09:29;;;;;;;32.53;14.17;;;;;;;1.75;100.00;96733.91;5058945;28;20254;-72
2022/12/20 09:11:56;;;;;;;30.43;12.60;;;;;;;1.76;100.00;96743.38;5058258;28;20557;-72
2022/12/20 09:14:24;;;;;;;34.67;13.83;;;;;;;1.87;100.00;96733.00;5058398;28;20816;-72
2022/12/20 09:16:50;;;;;;;42.50;17.23;;;;;;;1.67;100.00;96728.47;5058416;28;20447;-72
2022/12/20 09:19:17;;;;;;;35.77;12.80;;;;;;;1.66;100.00;96723.38;5058685;28;20226;-73
2022/12/20 09:21:43;;;;;;;34.90;13.57;;;;;;;1.67;100.00;96712.88;5058122;28;20674;-73
2022/12/20 09:24:10;;;;;;;34.97;13.83;;;;;;;1.82;100.00;96714.34;5058069;28;20203;-73
2022/12/20 09:26:37;;;;;;;32.67;12.77;;;;;;;1.92;100.00;96710.13;5058303;28;20702;-72
2022/12/20 09:29:04;;;;;;;41.47;14.70;;;;;;;1.92;100.00;96710.13;5058037;28;20833;-73
2022/12/20 09:31:32;;;;;;;38.03;15.30;;;;;;;2.08;100.00;96706.25;5058791;28;20587;-72
2022/12/20 09:33:59;;;;;;;40.63;15.50;;;;;;;2.19;100.00;96708.06;5057960;28;20211;-72
2022/12/20 09:36:27;;;;;;;32.73;13.70;;;;;;;2.25;100.00;96703.22;5057944;28;20218;-72
2022/12/20 09:38:54;;;;;;;45.57;16.30;;;;;;;2.27;100.00;96705.72;5059535;28;20228;-73
2022/12/20 09:41:28;;;;;;;43.67;15.13;;;;;;;2.44;100.00;96686.13;5058424;28;20209;-71
2022/12/20 09:43:55;;;;;;;38.33;15.80;;;;;;;2.47;100.00;96675.47;5057079;28;20203;-71
2022/12/20 09:46:23;;;;;;;45.00;16.07;;;;;;;2.50;100.00;96671.81;5058020;28;20210;-71
2022/12/20 09:48:51;;;;;;;35.97;15.03;;;;;;;2.34;100.00;96678.31;5058086;28;20246;-71
2022/12/20 09:51:32;;;;;;;38.50;15.10;;;;;;;2.41;100.00;96682.94;5057484;28;20208;-70
2022/12/20 09:54:12;;;;;;;41.33;16.50;;;;;;;2.49;100.00;96698.75;5057222;28;20200;-71
2022/12/20 09:56:43;;;;;;;38.33;14.97;;;;;;;2.29;100.00;96691.66;5057619;28;20217;-71
2022/12/20 09:59:13;;;;;;;33.07;13.83;;;;;;;2.47;100.00;96683.28;5057481;28;20707;-72
2022/12/20 10:01:44;;;;;;;37.30;13.80;;;;;;;2.56;100.00;96669.56;5057751;28;20210;-71
2022/12/20 10:04:21;;;;;;;33.53;13.60;;;;;;;2.60;100.00;96676.19;5057113;28;20548;-70
2022/12/20 10:06:58;;;;;;;34.43;14.13;;;;;;;2.82;100.00;96678.78;5057383;28;20537;-70
2022/12/20 10:09:43;;;;;;;37.63;15.70;;;;;;;2.87;100.00;96666.22;5057464;28;20232;-72
2022/12/20 10:12:17;;;;;;;42.77;15.00;;;;;;;2.86;100.00;96671.56;5058024;28;20262;-71
2022/12/20 10:14:59;;;;;;;43.10;17.40;;;;;;;2.87;100.00;96655.81;5056672;28;20719;-71
2022/12/20 10:17:36;;;;;;;51.17;17.70;;;;;;;2.97;100.00;96659.38;5056584;28;20224;-71
2022/12/20 10:20:24;;;;;;;38.30;15.73;;;;;;;3.01;100.00;96658.16;5057757;28;21084;-70
2022/12/20 10:22:57;;;;;;;41.60;16.43;;;;;;;2.85;100.00;96668.16;5057532;28;20208;-71
2022/12/20 10:25:29;;;;;;;43.17;15.67;;;;;;;3.07;100.00;96647.28;5056220;28;20212;-72
2022/12/20 10:27:57;;;;;;;38.07;14.77;;;;;;;3.27;100.00;96643.88;5057076;28;20239;-71
2022/12/20 10:30:26;;;;;;;41.20;14.77;;;;;;;3.44;100.00;96631.16;5056525;28;20204;-71
2022/12/20 10:32:55;;;;;;;37.27;15.97;;;;;;;3.56;100.00;96627.56;5056896;28;20208;-71
2022/12/20 10:35:27;;;;;;;38.30;15.77;;;;;;;3.54;100.00;96631.25;5056038;28;20579;-70
2022/12/20 10:37:59;;;;;;;43.10;16.30;;;;;;;3.71;100.00;96644.56;5057153;28;20223;-71
2022/12/20 10:40:29;;;;;;;47.57;16.97;;;;;;;3.65;100.00;96642.44;5056968;28;20215;-70
2022/12/20 10:42:56;;;;;;;57.90;19.60;;;;;;;3.29;100.00;96636.78;5057179;28;20212;-71
2022/12/20 10:45:33;;;;;;;50.50;19.07;;;;;;;3.10;100.00;96632.22;5055969;28;20208;-70
2022/12/20 10:48:01;;;;;;;64.93;19.97;;;;;;;3.20;100.00;96619.31;5056265;28;20227;-71
2022/12/20 10:50:29;;;;;;;53.30;20.67;;;;;;;3.52;100.00;96614.91;5056609;28;20205;-71
2022/12/20 10:53:20;;;;;;;56.10;21.93;;;;;;;3.96;100.00;96587.66;5056701;28;20208;-70
2022/12/20 10:55:47;;;;;;;45.77;18.87;;;;;;;4.07;100.00;96594.56;5062429;28;20254;-71
2022/12/20 10:58:16;;;;;;;54.43;20.60;;;;;;;4.27;100.00;96592.75;5057168;28;20220;-71
2022/12/20 11:00:43;;;;;;;51.53;20.20;;;;;;;4.35;100.00;96587.72;5056519;28;20208;-71
2022/12/20 11:03:15;;;;;;;49.43;18.90;;;;;;;4.60;100.00;96582.03;5056542;28;20204;-71
2022/12/20 11:05:55;;;;;;;47.63;18.53;;;;;;;5.19;99.05;96575.81;5055338;28;20394;-71
2022/12/20 11:08:25;;;;;;;46.40;18.17;;;;;;;5.19;97.82;96573.22;5055610;28;20232;-71
2022/12/20 11:11:11;;;;;;;56.33;20.73;;;;;;;5.63;96.87;96567.44;5056421;28;20312;-71
2022/12/20 11:13:38;;;;;;;51.70;19.50;;;;;;;5.62;95.39;96552.72;5056018;28;20212;-70
2022/12/20 11:16:05;;;;;;;43.13;19.67;;;;;;;5.46;94.72;96562.94;5056905;28;20208;-72
2022/12/20 11:18:45;;;;;;;43.27;17.10;;;;;;;4.78;99.26;96569.19;5056563;28;20223;-70
2022/12/20 11:21:24;;;;;;;49.17;19.70;;;;;;;5.22;97.82;96546.84;5056740;28;20211;-71
2022/12/20 11:23:58;;;;;;;41.53;18.77;;;;;;;5.34;97.09;96550.13;5055803;28;20830;-70
2022/12/20 11:26:40;;;;;;;43.43;18.07;;;;;;;5.16;98.15;96546.56;5057111;28;20291;-72
2022/12/20 11:29:21;;;;;;;49.67;18.13;;;;;;;5.45;98.50;96541.19;5056498;28;20236;-72
2022/12/20 11:31:56;;;;;;;46.37;16.40;;;;;;;5.82;98.33;96536.91;5056642;28;20231;-72